Brinsmade, North Dakota
Current Conditions -  °F | °C
As of 2:55 PM on Tuesday 21 Oct 2014 (Local Time) from KDVL Reporting Station
Clear Clear  
Wind Chill: 64°   Ceiling: Unl
Heat Index: 64°   Visibility: 10mi
Dew Point: 43°   Wind: 24mph
Humidity: 45%   Direction: 150°SSE
Pressure: 29.77"   Gusts: 29mph
Location:  48.18°N, 99.32°W
Report Text: KDVL 211955Z AUTO 15021G25KT 10SM CLR 18/06 A2977 RMK AO1
Loading
Personal Weather Stations






























Interactive Weather Map
Tropical Storm Tracking
New forecast layout! Learn more

10-Day Weather Forecast

Advertisements
Track Severe Weather on mobile